createdAt,value
2017-11-14T00:01:03.580Z,2.83
2017-11-14T00:06:03.375Z,2.73
2017-11-14T00:11:03.725Z,2.63
2017-11-14T00:16:03.910Z,2.49
2017-11-14T00:21:03.479Z,2.43
2017-11-14T00:26:03.378Z,2.30
2017-11-14T00:31:03.121Z,2.24
2017-11-14T00:36:03.899Z,2.06
2017-11-14T00:41:03.128Z,2.07
2017-11-14T00:46:03.887Z,2.07
2017-11-14T00:51:03.643Z,2.26
2017-11-14T00:56:03.412Z,2.00
2017-11-14T01:01:03.198Z,2.12
2017-11-14T01:06:03.020Z,2.07
2017-11-14T01:11:03.221Z,2.19
2017-11-14T01:16:03.997Z,2.09
2017-11-14T01:21:04.222Z,2.29
2017-11-14T01:26:03.400Z,2.49
2017-11-14T01:31:03.188Z,2.49
2017-11-14T01:36:04.719Z,2.29
2017-11-14T01:41:03.138Z,2.49
2017-11-14T01:46:03.918Z,3.24
2017-11-14T01:51:03.693Z,3.41
2017-11-14T01:56:03.465Z,3.26
2017-11-14T02:01:03.228Z,3.51
2017-11-14T02:06:03.991Z,3.69
2017-11-14T02:11:03.196Z,3.79
2017-11-14T02:16:03.977Z,3.84
2017-11-14T02:21:03.827Z,3.29
2017-11-14T02:26:03.599Z,3.29
2017-11-14T02:31:03.503Z,3.46
2017-11-14T02:36:03.247Z,3.06
2017-11-14T02:41:03.454Z,3.27
2017-11-14T02:46:03.221Z,3.13
2017-11-14T02:51:03.005Z,3.06
2017-11-14T02:56:03.783Z,3.00
2017-11-14T03:01:03.596Z,3.22
2017-11-14T03:06:03.358Z,2.79
2017-11-14T03:11:03.601Z,3.03
2017-11-14T03:16:03.377Z,3.22
2017-11-14T03:21:03.308Z,3.24
2017-11-14T03:26:03.032Z,2.99
2017-11-14T03:31:03.838Z,3.02
2017-11-14T03:36:03.544Z,2.83
2017-11-14T03:41:03.760Z,2.66
2017-11-14T03:46:03.520Z,2.79
2017-11-14T03:51:03.313Z,2.93
2017-11-14T03:56:03.082Z,2.64
2017-11-14T04:01:03.849Z,3.29
2017-11-14T04:06:03.627Z,3.34
2017-11-14T04:11:03.828Z,3.53
2017-11-14T04:16:03.618Z,3.53
2017-11-14T04:21:03.545Z,3.43
2017-11-14T04:26:03.264Z,3.37
2017-11-14T04:31:03.186Z,3.34
2017-11-14T04:36:03.931Z,3.16
2017-11-14T04:41:03.144Z,2.90
2017-11-14T04:46:03.935Z,3.03
2017-11-14T04:51:03.722Z,3.34
2017-11-14T04:56:03.495Z,3.23
2017-11-14T05:01:03.298Z,2.93
2017-11-14T05:06:03.063Z,2.57
2017-11-14T05:11:03.299Z,2.53
2017-11-14T05:16:03.073Z,2.47
2017-11-14T05:21:03.953Z,2.46
2017-11-14T05:26:03.966Z,2.15
2017-11-14T05:31:03.749Z,2.10
2017-11-14T05:36:03.492Z,1.90
2017-11-14T05:41:03.057Z,2.17
2017-11-14T05:46:03.820Z,2.20
2017-11-14T05:51:03.612Z,2.13
2017-11-14T05:56:03.448Z,2.43
2017-11-14T06:01:03.217Z,2.40
2017-11-14T06:06:04.001Z,2.22
2017-11-14T06:11:03.172Z,2.17
2017-11-14T06:16:03.958Z,2.39
2017-11-14T06:21:03.797Z,2.22
2017-11-14T06:26:03.585Z,2.27
2017-11-14T06:31:03.344Z,2.34
2017-11-14T06:36:03.118Z,2.40
2017-11-14T06:41:03.372Z,2.39
2017-11-14T06:46:03.107Z,2.56
2017-11-14T06:51:03.862Z,2.67
2017-11-14T06:56:03.659Z,2.69
2017-11-14T07:01:03.427Z,2.84
2017-11-14T07:06:03.262Z,2.94
2017-11-14T07:11:03.477Z,3.13
2017-11-14T07:16:03.302Z,3.33
2017-11-14T07:21:03.095Z,3.34
2017-11-14T07:26:03.839Z,3.46
2017-11-14T07:31:03.649Z,3.54
2017-11-14T07:36:03.361Z,3.71
2017-11-14T07:41:03.558Z,3.91
2017-11-14T07:46:03.367Z,3.91
2017-11-14T07:51:03.130Z,4.01
2017-11-14T07:56:03.964Z,4.01
2017-11-14T08:01:03.734Z,4.11
2017-11-14T08:06:03.512Z,4.17
2017-11-14T08:11:03.663Z,4.37
2017-11-14T08:16:03.452Z,4.47
2017-11-14T08:21:03.257Z,4.57
2017-11-14T08:26:03.055Z,4.69
2017-11-14T08:31:03.881Z,4.89
2017-11-14T08:36:03.685Z,4.99
2017-11-14T08:41:03.884Z,4.97
2017-11-14T08:46:03.671Z,5.06
2017-11-14T08:51:03.394Z,5.06
2017-11-14T08:56:03.203Z,5.17
2017-11-14T09:01:03.956Z,5.19
2017-11-14T09:06:03.746Z,5.29
2017-11-14T09:11:03.921Z,5.46
2017-11-14T09:16:03.733Z,5.56
2017-11-14T09:21:03.587Z,5.56
2017-11-14T09:26:03.361Z,5.50
2017-11-14T09:31:03.182Z,5.51
2017-11-14T09:36:03.931Z,5.54
2017-11-14T09:41:03.121Z,5.53
2017-11-14T09:46:03.896Z,5.51
2017-11-14T09:51:03.724Z,5.61
2017-11-14T09:56:03.537Z,5.61
2017-11-14T10:01:03.484Z,5.73
2017-11-14T10:06:03.298Z,5.90
2017-11-14T10:11:03.428Z,5.90
2017-11-14T10:16:03.640Z,5.98
2017-11-14T10:21:03.553Z,6.04
2017-11-14T10:26:03.328Z,6.10
2017-11-14T10:31:03.065Z,6.21
2017-11-14T10:36:03.869Z,6.20
2017-11-14T10:41:03.115Z,6.09
2017-11-14T10:46:03.991Z,6.28
2017-11-14T10:51:03.734Z,6.28
2017-11-14T10:56:03.505Z,6.47
2017-11-14T11:01:03.301Z,6.49
2017-11-14T11:06:03.116Z,6.66
2017-11-14T11:11:03.306Z,6.56
2017-11-14T11:16:03.046Z,6.77
2017-11-14T11:21:03.941Z,6.90
2017-11-14T11:26:03.784Z,6.84
2017-11-14T11:31:03.792Z,6.72
2017-11-14T11:36:03.805Z,6.72
2017-11-14T11:41:03.946Z,6.53
2017-11-14T11:46:03.690Z,6.78
2017-11-14T11:51:03.501Z,6.87
2017-11-14T11:56:03.321Z,6.87
2017-11-14T12:01:03.054Z,7.03
2017-11-14T12:06:03.862Z,7.02
2017-11-14T12:11:04.031Z,7.05
2017-11-14T12:16:03.799Z,6.99
2017-11-14T12:21:03.654Z,7.05
2017-11-14T12:26:03.456Z,7.07
2017-11-14T12:31:03.221Z,7.06
2017-11-14T12:36:03.975Z,7.11
2017-11-14T12:41:03.138Z,7.21
2017-11-14T12:46:03.227Z,7.26
2017-11-14T12:51:03.958Z,7.06
2017-11-14T12:56:03.761Z,7.23
2017-11-14T13:01:03.539Z,7.13
2017-11-14T13:06:03.310Z,7.20
2017-11-14T13:11:03.520Z,7.07
2017-11-14T13:16:03.286Z,7.13
2017-11-14T13:21:03.140Z,7.07
2017-11-14T13:26:03.908Z,6.89
2017-11-14T13:31:03.668Z,6.88
2017-11-14T13:36:03.397Z,6.89
2017-11-14T13:41:03.572Z,6.88
2017-11-14T13:46:03.449Z,6.92
2017-11-14T13:51:03.226Z,6.91
2017-11-14T13:56:03.990Z,6.89
2017-11-14T14:01:03.717Z,6.91
2017-11-14T14:06:03.475Z,6.91
2017-11-14T14:11:03.696Z,6.84
2017-11-14T14:16:03.488Z,6.95
2017-11-14T14:21:03.370Z,6.81
2017-11-14T14:26:03.181Z,6.79
2017-11-14T14:31:03.997Z,6.69
2017-11-14T14:36:03.863Z,6.79
2017-11-14T14:41:02.989Z,6.81
2017-11-14T14:46:04.023Z,6.82
2017-11-14T14:51:03.340Z,6.77
2017-11-14T14:56:03.031Z,6.80
2017-11-14T15:01:03.108Z,6.82
2017-11-14T15:06:03.961Z,6.85
2017-11-14T15:11:03.144Z,6.82
2017-11-14T15:16:04.308Z,6.83
2017-11-14T15:21:03.757Z,6.74
2017-11-14T15:26:03.557Z,6.74
2017-11-14T15:31:03.620Z,6.83
2017-11-14T15:36:03.376Z,6.77
2017-11-14T15:41:03.644Z,6.77
2017-11-14T15:46:03.476Z,6.78
2017-11-14T15:51:03.248Z,6.78
2017-11-14T15:56:04.381Z,6.80
2017-11-14T16:01:03.154Z,6.80
2017-11-14T16:06:03.921Z,6.81
2017-11-14T16:11:03.181Z,6.80
2017-11-14T16:16:03.965Z,6.80
2017-11-14T16:21:03.880Z,6.84
2017-11-14T16:26:03.655Z,6.84
2017-11-14T16:31:03.986Z,6.87
2017-11-14T16:36:03.354Z,6.92
2017-11-14T16:41:03.471Z,6.92
2017-11-14T16:46:03.264Z,6.94
2017-11-14T16:51:04.012Z,6.94
2017-11-14T16:56:03.787Z,6.95
2017-11-14T17:01:03.575Z,6.97
2017-11-14T17:06:03.363Z,6.98
2017-11-14T17:11:03.626Z,6.98
2017-11-14T17:16:03.457Z,6.98
2017-11-14T17:21:03.272Z,7.01
2017-11-14T17:26:03.335Z,7.03
2017-11-14T17:31:03.170Z,7.04
2017-11-14T17:36:03.996Z,7.06
2017-11-14T17:41:03.251Z,7.06
2017-11-14T17:46:03.968Z,7.07
2017-11-14T17:51:03.738Z,7.19
2017-11-14T17:56:03.491Z,7.10
2017-11-14T18:01:03.313Z,7.23
2017-11-14T18:06:03.077Z,7.12
2017-11-14T18:11:03.243Z,7.23
2017-11-14T18:16:08.297Z,7.26
2017-11-14T18:21:03.892Z,7.26
2017-11-14T18:26:04.112Z,7.31
2017-11-14T18:31:04.265Z,7.32
2017-11-14T18:36:04.199Z,7.31
2017-11-14T18:41:03.441Z,7.31
2017-11-14T18:46:03.545Z,7.32
2017-11-14T18:51:03.334Z,7.35
2017-11-14T18:56:03.834Z,7.37
2017-11-14T19:01:03.825Z,7.37
2017-11-14T19:06:04.851Z,7.38
2017-11-14T19:11:04.280Z,7.40
2017-11-14T19:16:03.387Z,7.41
2017-11-14T19:21:04.488Z,7.44
2017-11-14T19:26:04.219Z,7.50
2017-11-14T19:31:04.916Z,7.40
2017-11-14T19:36:04.397Z,7.43
2017-11-14T19:41:04.481Z,7.39
2017-11-14T19:46:04.181Z,7.47
2017-11-14T19:51:05.019Z,7.44
2017-11-14T19:56:04.697Z,7.47
2017-11-14T20:01:04.547Z,7.37
2017-11-14T20:06:04.352Z,7.31
2017-11-14T20:11:04.457Z,7.43
2017-11-14T20:16:04.365Z,7.40
2017-11-14T20:21:05.057Z,7.34
2017-11-14T20:26:04.737Z,7.36
2017-11-14T20:31:04.899Z,7.47
2017-11-14T20:36:04.764Z,7.27
2017-11-14T20:41:04.926Z,7.36
2017-11-14T20:46:05.118Z,7.39
2017-11-14T20:51:04.556Z,7.39
2017-11-14T20:56:03.446Z,7.39
2017-11-14T21:01:04.127Z,7.29
2017-11-14T21:06:04.601Z,7.29
2017-11-14T21:11:04.764Z,7.29
2017-11-14T21:16:04.241Z,7.29
2017-11-14T21:21:04.126Z,7.39
2017-11-14T21:26:04.041Z,7.39
2017-11-14T21:31:03.964Z,7.39
2017-11-14T21:36:03.765Z,7.29
2017-11-14T21:41:03.822Z,7.29
2017-11-14T21:46:03.685Z,7.29
2017-11-14T21:51:03.523Z,7.29
2017-11-14T21:56:03.216Z,7.29
2017-11-14T22:01:04.061Z,7.39
2017-11-14T22:06:03.788Z,7.39
2017-11-14T22:11:03.981Z,7.39
2017-11-14T22:16:03.822Z,7.39
2017-11-14T22:21:03.638Z,7.29
2017-11-14T22:26:03.348Z,7.29
2017-11-14T22:31:03.121Z,7.39
2017-11-14T22:36:03.055Z,7.29
2017-11-14T22:41:03.196Z,7.29
2017-11-14T22:46:03.997Z,7.29
2017-11-14T22:51:03.763Z,7.29
2017-11-14T22:56:03.562Z,7.29
2017-11-14T23:01:03.340Z,7.39
2017-11-14T23:06:03.088Z,7.29
2017-11-14T23:11:03.386Z,7.39
2017-11-14T23:16:03.098Z,7.19
2017-11-14T23:21:03.000Z,7.29
2017-11-14T23:26:04.134Z,7.29
2017-11-14T23:31:03.631Z,7.39
2017-11-14T23:36:03.674Z,7.29
2017-11-14T23:41:03.919Z,7.19
2017-11-14T23:46:04.001Z,7.19
2017-11-14T23:51:03.700Z,7.29
2017-11-14T23:56:03.488Z,7.19
